Time;durP1;ratioP1;P1;durP2;ratioP2;P2;SDS_P1;SDS_P2;PMS_P1;PMS_P2;Temp;Humidity;BMP_temperature;BMP_pressure;BME280_temperature;BME280_humidity;BME280_pressure;Samples;Min_cycle;Max_cycle;Signal;HPM_P1;HPM_P2
2022/08/25 00:01:32;;;;;;;12.35;6.65;;;;;;;14.98;100.00;95670.84;5085713;28;20028;-75
2022/08/25 00:03:59;;;;;;;10.15;6.22;;;;;;;14.99;100.00;95671.63;5090579;28;20410;-75
2022/08/25 00:06:24;;;;;;;12.55;6.38;;;;;;;14.83;100.00;95668.47;5089625;28;20032;-75
2022/08/25 00:08:50;;;;;;;9.43;6.32;;;;;;;14.97;100.00;95669.28;5084347;28;20515;-75
2022/08/25 00:11:22;;;;;;;13.43;6.57;;;;;;;14.87;100.00;95669.47;5090874;28;20036;-75
2022/08/25 00:13:52;;;;;;;13.15;6.45;;;;;;;14.95;100.00;95660.81;5089643;28;20048;-74
2022/08/25 00:16:19;;;;;;;10.40;6.32;;;;;;;14.95;100.00;95660.81;5090447;28;20036;-74
2022/08/25 00:18:47;;;;;;;10.25;6.25;;;;;;;14.87;100.00;95658.88;5089208;28;20059;-74
2022/08/25 00:21:14;;;;;;;11.48;6.35;;;;;;;14.77;100.00;95664.34;5083785;28;20044;-74
2022/08/25 00:23:40;;;;;;;11.85;6.70;;;;;;;14.82;100.00;95658.94;5087633;28;20554;-74
2022/08/25 00:26:07;;;;;;;10.25;5.93;;;;;;;14.90;100.00;95663.59;5089911;28;20032;-74
2022/08/25 00:28:35;;;;;;;9.80;6.32;;;;;;;14.86;100.00;95652.00;5087508;28;20040;-75
2022/08/25 00:31:02;;;;;;;11.23;5.97;;;;;;;14.73;100.00;95654.31;5089486;28;20051;-75
2022/08/25 00:33:30;;;;;;;12.00;6.35;;;;;;;14.71;100.00;95656.50;5090113;28;20576;-74
2022/08/25 00:35:56;;;;;;;11.02;6.35;;;;;;;14.80;100.00;95653.19;5090067;28;20051;-74
2022/08/25 00:38:22;;;;;;;9.35;6.07;;;;;;;14.72;100.00;95646.66;5087401;28;20052;-73
2022/08/25 00:41:04;;;;;;;11.32;6.25;;;;;;;14.64;100.00;95650.78;5089642;28;20047;-74
2022/08/25 00:43:51;;;;;;;10.43;6.28;;;;;;;14.69;100.00;95658.63;5084240;28;20043;-74
2022/08/25 00:46:21;;;;;;;9.48;5.60;;;;;;;14.64;100.00;95656.09;5088646;28;20043;-74
2022/08/25 00:48:51;;;;;;;10.30;5.63;;;;;;;14.59;100.00;95645.53;5089824;28;20058;-74
2022/08/25 00:51:24;;;;;;;8.35;5.32;;;;;;;14.57;100.00;95650.34;5088047;28;20597;-74
2022/08/25 00:53:50;;;;;;;12.20;5.78;;;;;;;14.49;100.00;95648.38;5090469;28;20047;-75
2022/08/25 00:56:16;;;;;;;9.93;5.63;;;;;;;14.59;100.00;95642.13;5089479;28;20493;-74
2022/08/25 00:58:42;;;;;;;9.50;5.47;;;;;;;14.49;100.00;95643.06;5084511;28;20042;-75
2022/08/25 01:01:08;;;;;;;11.93;5.60;;;;;;;14.47;100.00;95645.22;5086881;28;20101;-74
2022/08/25 01:03:34;;;;;;;11.52;5.80;;;;;;;14.46;100.00;95633.06;5086365;28;20486;-74
2022/08/25 01:06:02;;;;;;;10.00;5.25;;;;;;;14.44;100.00;95635.19;5089538;28;20036;-74
2022/08/25 01:08:31;;;;;;;9.23;5.22;;;;;;;14.28;100.00;95640.75;5088679;28;20032;-74
2022/08/25 01:11:01;;;;;;;10.15;5.28;;;;;;;14.30;100.00;95637.81;5087170;28;20447;-74
2022/08/25 01:13:54;;;;;;;8.73;5.40;;;;;;;14.21;100.00;95638.47;5087970;28;20036;-74
2022/08/25 01:16:20;;;;;;;9.73;5.65;;;;;;;14.12;100.00;95637.56;5083386;28;20052;-74
2022/08/25 01:18:56;;;;;;;10.05;5.55;;;;;;;14.11;100.00;95643.16;5088109;28;20127;-74
2022/08/25 01:21:24;;;;;;;9.50;5.30;;;;;;;14.02;100.00;95641.16;5088374;28;20043;-75
2022/08/25 01:23:51;;;;;;;9.05;5.03;;;;;;;14.02;100.00;95641.16;5089005;28;20043;-75
2022/08/25 01:26:22;;;;;;;11.02;5.82;;;;;;;14.08;100.00;95641.06;5087842;28;20044;-75
2022/08/25 01:31:36;;;;;;;10.43;5.95;;;;;;;14.01;100.00;95629.00;5087215;28;20043;-75
2022/08/25 01:34:04;;;;;;;9.23;5.63;;;;;;;14.01;100.00;95634.28;5087877;28;20040;-74
2022/08/25 01:36:30;;;;;;;8.70;5.25;;;;;;;13.99;100.00;95636.44;5077464;28;20040;-74
2022/08/25 01:38:56;;;;;;;10.38;5.57;;;;;;;13.94;100.00;95638.38;5087779;28;20139;-74
2022/08/25 01:41:35;;;;;;;13.02;5.32;;;;;;;13.98;100.00;95629.56;5086999;28;20036;-74
2022/08/25 01:44:04;;;;;;;8.13;5.25;;;;;;;13.92;100.00;95636.03;5088549;28;20084;-74
2022/08/25 01:46:31;;;;;;;9.35;5.22;;;;;;;13.86;100.00;95631.84;5088445;28;20036;-74
2022/08/25 01:48:56;;;;;;;10.32;5.10;;;;;;;13.79;100.00;95637.53;5085264;28;20493;-74
2022/08/25 01:51:26;;;;;;;10.40;5.30;;;;;;;13.75;100.00;95630.44;5090118;28;20057;-74
2022/08/25 01:53:52;;;;;;;8.85;5.40;;;;;;;13.77;100.00;95629.06;5091980;28;20040;-74
2022/08/25 01:56:18;;;;;;;9.43;5.25;;;;;;;13.67;100.00;95630.00;5095376;28;20044;-74
2022/08/25 01:58:46;;;;;;;8.63;5.72;;;;;;;13.71;100.00;95629.44;5084807;28;20466;-74
2022/08/25 02:01:16;;;;;;;11.02;5.28;;;;;;;13.71;100.00;95626.81;5093986;28;20051;-74
2022/08/25 02:03:47;;;;;;;8.73;5.45;;;;;;;13.65;100.00;95624.22;5098747;28;20520;-75
2022/08/25 02:06:16;;;;;;;9.43;5.47;;;;;;;13.66;100.00;95623.16;5088680;28;20394;-74
2022/08/25 02:08:42;;;;;;;10.82;5.57;;;;;;;13.44;100.00;95625.56;5080736;28;20489;-75
2022/08/25 02:11:12;;;;;;;8.88;5.28;;;;;;;13.53;100.00;95623.84;5089599;28;20089;-75
2022/08/25 02:13:39;;;;;;;8.23;5.20;;;;;;;13.54;100.00;95629.94;5095825;28;20040;-74
2022/08/25 02:16:05;;;;;;;10.20;5.78;;;;;;;13.51;100.00;95636.56;5089298;28;20040;-73
2022/08/25 02:18:31;;;;;;;8.35;5.25;;;;;;;13.45;100.00;95632.44;5102186;28;20047;-74
2022/08/25 02:20:56;;;;;;;9.95;5.60;;;;;;;13.24;100.00;95622.06;5085741;28;20051;-74
2022/08/25 02:23:22;;;;;;;10.63;5.43;;;;;;;13.32;100.00;95626.72;5091204;28;20117;-74
2022/08/25 02:25:47;;;;;;;9.52;5.75;;;;;;;13.41;100.00;95620.84;5098290;28;20043;-74
2022/08/25 02:28:13;;;;;;;10.13;5.43;;;;;;;13.42;100.00;95627.69;5098645;28;20071;-74
2022/08/25 02:30:41;;;;;;;9.18;5.43;;;;;;;13.36;100.00;95628.84;5081875;28;20548;-75
2022/08/25 02:33:07;;;;;;;11.55;5.50;;;;;;;13.32;100.00;95629.38;5082896;28;20040;-74
2022/08/25 02:35:33;;;;;;;9.10;5.55;;;;;;;13.36;100.00;95628.84;5096003;28;20040;-74
2022/08/25 02:37:59;;;;;;;11.52;5.85;;;;;;;13.24;100.00;95627.34;5078741;28;20050;-74
2022/08/25 02:40:25;;;;;;;13.50;5.80;;;;;;;13.17;100.00;95633.00;5090025;28;20036;-74
2022/08/25 02:42:51;;;;;;;9.18;5.15;;;;;;;13.25;100.00;95626.28;5094668;28;20044;-75
2022/08/25 02:45:17;;;;;;;10.30;5.68;;;;;;;13.23;100.00;95620.50;5100944;28;20059;-74
2022/08/25 02:47:43;;;;;;;12.27;5.50;;;;;;;13.18;100.00;95623.97;5099205;28;20098;-75
2022/08/25 02:50:10;;;;;;;8.63;5.22;;;;;;;13.03;100.00;95615.44;5089557;28;20039;-74
2022/08/25 02:52:36;;;;;;;10.52;5.85;;;;;;;13.00;100.00;95625.53;5086377;28;20043;-74
2022/08/25 02:55:04;;;;;;;9.20;5.53;;;;;;;12.93;100.00;95622.44;5083618;28;20081;-75
2022/08/25 02:57:30;;;;;;;9.23;5.20;;;;;;;13.03;100.00;95610.16;5096967;28;20040;-75
2022/08/25 02:59:56;;;;;;;11.13;5.68;;;;;;;12.94;100.00;95608.16;5089710;28;20051;-75
2022/08/25 03:02:23;;;;;;;10.02;5.68;;;;;;;13.06;100.00;95604.31;5090550;28;20032;-75
2022/08/25 03:04:50;;;;;;;11.02;5.90;;;;;;;13.08;100.00;95607.47;5094149;28;20047;-75
2022/08/25 03:07:16;;;;;;;12.88;5.47;;;;;;;13.05;100.00;95602.75;5078776;28;20043;-75
2022/08/25 03:09:43;;;;;;;11.75;5.57;;;;;;;12.99;100.00;95605.44;5093001;28;20063;-75
2022/08/25 03:12:10;;;;;;;11.25;5.80;;;;;;;12.85;100.00;95607.19;5082868;28;20041;-75
2022/08/25 03:14:36;;;;;;;11.38;5.72;;;;;;;12.83;100.00;95602.19;5096613;28;20103;-75
2022/08/25 03:17:02;;;;;;;10.05;5.78;;;;;;;13.05;100.00;95608.03;5104685;27;20398;-74
2022/08/25 03:19:28;;;;;;;9.65;5.57;;;;;;;13.09;100.00;95603.78;5098922;28;20039;-75
2022/08/25 03:21:55;;;;;;;10.15;5.97;;;;;;;12.93;100.00;95606.59;5085643;28;20471;-75
2022/08/25 03:24:22;;;;;;;10.40;5.65;;;;;;;12.91;100.00;95607.94;5094721;28;20039;-75
2022/08/25 03:26:54;;;;;;;10.57;6.03;;;;;;;12.79;100.00;95608.31;5104414;28;20059;-75
2022/08/25 03:29:25;;;;;;;14.45;6.43;;;;;;;12.58;100.00;95605.88;5087963;28;20141;-75
2022/08/25 03:31:54;;;;;;;10.45;5.85;;;;;;;12.82;100.00;95599.84;5096779;28;20054;-75
2022/08/25 03:34:21;;;;;;;9.60;5.47;;;;;;;12.83;100.00;95601.41;5090585;28;20032;-75
2022/08/25 03:36:49;;;;;;;10.45;5.95;;;;;;;12.71;100.00;95598.38;5098465;28;20040;-74
2022/08/25 03:39:17;;;;;;;10.77;6.15;;;;;;;12.76;100.00;95600.97;5086377;28;20044;-75
2022/08/25 03:41:42;;;;;;;12.70;6.40;;;;;;;12.72;100.00;95599.94;5096573;28;20675;-74
2022/08/25 03:44:08;;;;;;;9.90;5.65;;;;;;;12.82;100.00;95599.84;5088530;28;20037;-75
2022/08/25 03:46:42;;;;;;;9.05;5.65;;;;;;;12.81;100.00;95598.25;5087143;28;20113;-74
2022/08/25 03:49:10;;;;;;;13.30;6.03;;;;;;;12.78;100.00;95593.53;5096390;28;20511;-75
2022/08/25 03:51:41;;;;;;;10.18;5.82;;;;;;;12.74;100.00;95593.34;5088668;28;20093;-74
2022/08/25 03:54:08;;;;;;;9.57;5.50;;;;;;;12.73;100.00;95593.59;5095521;28;20196;-74
2022/08/25 03:56:33;;;;;;;16.75;6.00;;;;;;;12.73;100.00;95596.22;5090287;28;20036;-75
2022/08/25 03:58:59;;;;;;;11.27;6.05;;;;;;;12.69;100.00;95593.38;5091387;28;20044;-74
2022/08/25 04:01:25;;;;;;;9.13;4.97;;;;;;;12.62;100.00;95595.56;5093994;28;20039;-75
2022/08/25 04:03:51;;;;;;;9.07;5.10;;;;;;;12.68;100.00;95594.44;5087691;28;20074;-74
2022/08/25 04:06:18;;;;;;;11.57;5.60;;;;;;;12.68;100.00;95599.72;5090663;28;20040;-74
2022/08/25 04:08:44;;;;;;;9.98;5.72;;;;;;;12.61;100.00;95604.53;5081195;28;20036;-74
2022/08/25 04:11:18;;;;;;;10.48;6.32;;;;;;;12.51;100.00;95599.38;5096291;28;20050;-74
2022/08/25 04:13:45;;;;;;;15.30;6.53;;;;;;;12.58;100.00;95600.59;5087674;27;20036;-74
2022/08/25 04:16:20;;;;;;;10.90;6.10;;;;;;;12.46;100.00;95600.22;5093072;28;20109;-74
2022/08/25 04:18:48;;;;;;;9.23;5.57;;;;;;;12.53;100.00;95602.50;5093787;28;20056;-74
2022/08/25 04:21:14;;;;;;;11.82;6.32;;;;;;;12.43;100.00;95611.31;5103525;28;20114;-74
2022/08/25 04:23:41;;;;;;;12.50;6.22;;;;;;;12.41;100.00;95611.59;5086818;28;20115;-74
2022/08/25 04:26:15;;;;;;;12.93;6.70;;;;;;;12.45;100.00;95611.81;5096505;28;20032;-74
2022/08/25 04:28:41;;;;;;;9.52;5.75;;;;;;;12.35;100.00;95609.28;5089355;28;20036;-74
2022/08/25 04:31:08;;;;;;;11.05;6.00;;;;;;;12.28;100.00;95602.47;5085614;28;20039;-74
2022/08/25 04:33:35;;;;;;;11.15;6.47;;;;;;;12.14;100.00;95604.19;5097717;28;20044;-74
2022/08/25 04:36:01;;;;;;;14.48;6.20;;;;;;;12.16;100.00;95599.41;5087122;28;20552;-74
2022/08/25 04:38:27;;;;;;;11.13;6.13;;;;;;;12.32;100.00;95601.91;5098659;28;20577;-75
2022/08/25 04:41:01;;;;;;;11.05;6.40;;;;;;;12.41;100.00;95595.78;5092908;28;20055;-74
2022/08/25 04:43:26;;;;;;;10.23;6.32;;;;;;;12.46;100.00;95605.47;5091413;28;20089;-74
2022/08/25 04:45:52;;;;;;;10.68;6.47;;;;;;;12.43;100.00;95603.41;5101568;28;20452;-74
2022/08/25 04:48:18;;;;;;;11.55;6.30;;;;;;;12.36;100.00;95608.22;5088564;28;20040;-74
2022/08/25 04:50:43;;;;;;;10.73;5.65;;;;;;;12.29;100.00;95604.03;5097654;28;20516;-75
2022/08/25 04:53:10;;;;;;;10.35;6.00;;;;;;;12.42;100.00;95601.81;5090163;28;20097;-74
2022/08/25 04:55:44;;;;;;;11.10;6.13;;;;;;;12.40;100.00;95609.25;5096468;28;20047;-74
2022/08/25 04:58:09;;;;;;;10.20;6.30;;;;;;;12.44;100.00;95604.97;5086101;28;20073;-74
2022/08/25 05:00:35;;;;;;;10.45;6.40;;;;;;;12.55;100.00;95606.44;5090512;28;20394;-74
2022/08/25 05:03:02;;;;;;;13.65;6.65;;;;;;;12.52;100.00;95601.72;5094251;28;20096;-74
2022/08/25 05:05:29;;;;;;;11.35;6.13;;;;;;;12.63;100.00;95603.19;5095247;28;20047;-74
2022/08/25 05:07:54;;;;;;;12.23;6.38;;;;;;;12.69;100.00;95595.25;5097050;28;20446;-74
2022/08/25 05:10:20;;;;;;;15.20;6.38;;;;;;;12.70;100.00;95596.78;5081560;28;20173;-74
2022/08/25 05:12:46;;;;;;;10.60;6.00;;;;;;;12.80;100.00;95604.59;5086895;28;20079;-74
2022/08/25 05:17:56;;;;;;;17.70;7.13;;;;;;;12.84;100.00;95600.34;5096619;28;20043;-74
2022/08/25 05:20:23;;;;;;;9.52;5.80;;;;;;;12.86;100.00;95595.56;5101051;28;20096;-74
2022/08/25 05:22:49;;;;;;;10.95;6.32;;;;;;;12.92;100.00;95598.94;5092033;28;20123;-74
2022/08/25 05:25:14;;;;;;;13.27;7.22;;;;;;;12.95;100.00;95593.09;5094877;28;20040;-75
2022/08/25 05:27:41;;;;;;;16.00;7.63;;;;;;;13.07;100.00;95584.75;5096046;28;20035;-74
2022/08/25 05:30:09;;;;;;;16.70;8.25;;;;;;;13.11;100.00;95596.34;5086384;28;20048;-74
2022/08/25 05:32:34;;;;;;;16.20;8.35;;;;;;;13.19;100.00;95593.06;5086622;28;20043;-74
2022/08/25 05:35:00;;;;;;;18.17;8.20;;;;;;;13.16;100.00;95593.66;5093605;28;20035;-74
2022/08/25 05:37:25;;;;;;;12.80;7.10;;;;;;;13.20;100.00;95589.34;5093656;28;20040;-74
2022/08/25 05:39:51;;;;;;;16.50;7.70;;;;;;;13.29;100.00;95581.59;5082191;28;20047;-74
2022/08/25 05:42:16;;;;;;;17.08;7.63;;;;;;;13.37;100.00;95577.56;5086555;28;20505;-74
2022/08/25 05:44:42;;;;;;;19.52;8.75;;;;;;;13.43;100.00;95586.97;5093399;28;20039;-74
2022/08/25 05:47:07;;;;;;;16.75;8.23;;;;;;;13.54;100.00;95588.41;5094136;28;20477;-74
2022/08/25 05:49:33;;;;;;;15.77;8.60;;;;;;;13.77;100.00;95585.97;5089572;28;20664;-74
2022/08/25 05:51:58;;;;;;;18.20;9.25;;;;;;;14.10;100.00;95591.28;5087479;28;20044;-74
2022/08/25 05:54:24;;;;;;;16.48;10.00;;;;;;;14.23;100.00;95590.53;5081211;28;20043;-74
2022/08/25 05:56:49;;;;;;;14.45;8.77;;;;;;;14.21;100.00;95584.75;5096919;28;20044;-73
2022/08/25 05:59:15;;;;;;;18.42;10.90;;;;;;;14.32;100.00;95585.38;5086000;28;20036;-74
2022/08/25 06:04:25;;;;;;;16.92;9.70;;;;;;;14.49;100.00;95590.09;5095864;28;20147;-75
2022/08/25 06:06:53;;;;;;;15.60;9.75;;;;;;;14.59;100.00;95584.63;5083043;28;20037;-74
2022/08/25 06:09:20;;;;;;;18.85;10.27;;;;;;;14.61;100.00;95582.50;5082433;28;20036;-74
2022/08/25 06:11:46;;;;;;;21.38;12.07;;;;;;;14.91;100.00;95580.34;5085943;28;20079;-74
2022/08/25 06:14:12;;;;;;;22.17;10.98;;;;;;;15.02;100.00;95581.72;5092336;28;20089;-74
2022/08/25 06:16:39;;;;;;;20.05;10.43;;;;;;;15.12;100.00;95579.97;5086799;28;20046;-75
2022/08/25 06:19:06;;;;;;;23.10;11.50;;;;;;;14.98;100.00;95572.78;5087359;28;20409;-75
2022/08/25 06:21:32;;;;;;;21.92;13.85;;;;;;;15.28;100.00;95578.56;5082495;28;20048;-74
2022/08/25 06:23:57;;;;;;;22.40;11.55;;;;;;;15.39;100.00;95571.94;5094070;28;20044;-74
2022/08/25 06:26:23;;;;;;;22.73;11.75;;;;;;;15.36;100.00;95579.72;5096968;28;20644;-73
2022/08/25 06:28:50;;;;;;;23.85;12.93;;;;;;;15.33;100.00;95575.00;5087916;28;20044;-75
2022/08/25 06:31:16;;;;;;;22.45;11.95;;;;;;;15.50;100.00;95563.78;5086200;28;20058;-73
2022/08/25 06:33:42;;;;;;;21.27;12.00;;;;;;;15.69;100.00;95567.06;5096826;28;20124;-74
2022/08/25 06:36:08;;;;;;;21.35;11.27;;;;;;;15.82;100.00;95570.00;5092999;28;20044;-74
2022/08/25 06:38:34;;;;;;;20.50;12.00;;;;;;;15.99;100.00;95570.13;5082951;28;20040;-75
2022/08/25 06:41:04;;;;;;;19.52;10.38;;;;;;;16.00;100.00;95569.03;5084791;28;20445;-75
2022/08/25 06:43:32;;;;;;;16.10;9.85;;;;;;;15.88;100.00;95564.25;5085173;28;20040;-75
2022/08/25 06:46:06;;;;;;;18.67;11.13;;;;;;;16.13;100.00;95575.34;5086461;28;20071;-75
2022/08/25 06:48:33;;;;;;;22.15;11.10;;;;;;;15.96;100.00;95570.72;5087860;28;20040;-75
2022/08/25 06:50:58;;;;;;;21.23;11.80;;;;;;;16.26;100.00;95568.41;5083775;28;20045;-76
2022/08/25 06:53:24;;;;;;;19.13;11.68;;;;;;;16.55;100.00;95580.41;5085427;28;20459;-76
2022/08/25 06:55:57;;;;;;;19.60;10.88;;;;;;;16.35;100.00;95571.91;5085809;28;20074;-75
2022/08/25 06:58:22;;;;;;;17.80;10.25;;;;;;;16.51;100.00;95574.16;5084907;28;20051;-76
2022/08/25 07:00:48;;;;;;;19.02;11.00;;;;;;;16.32;100.00;95577.81;5077817;28;20048;-76
2022/08/25 07:03:13;;;;;;;15.30;9.63;;;;;;;16.49;100.00;95576.34;5085601;28;20047;-76
2022/08/25 07:05:39;;;;;;;15.32;10.05;;;;;;;16.38;100.00;95571.28;5086942;28;20044;-76
2022/08/25 07:08:05;;;;;;;16.52;10.43;;;;;;;16.36;100.00;95573.44;5082106;28;20409;-76
2022/08/25 07:10:30;;;;;;;23.63;10.73;;;;;;;16.73;100.00;95586.59;5087007;28;20121;-76
2022/08/25 07:12:56;;;;;;;15.45;9.40;;;;;;;16.96;100.00;95579.38;5085917;28;20043;-76
2022/08/25 07:15:21;;;;;;;14.35;9.15;;;;;;;17.01;100.00;95576.56;5085728;28;20032;-77
2022/08/25 07:17:48;;;;;;;16.20;8.93;;;;;;;16.99;100.00;95570.00;5083226;28;20051;-76
2022/08/25 07:20:14;;;;;;;16.88;8.68;;;;;;;16.92;100.00;95576.56;5082820;28;20040;-77
2022/08/25 07:22:39;;;;;;;18.08;9.48;;;;;;;16.86;100.00;95575.06;5087583;28;20043;-75
2022/08/25 07:25:07;;;;;;;16.83;9.57;;;;;;;16.79;100.00;95570.22;5081241;28;20405;-75
2022/08/25 07:27:32;;;;;;;17.27;8.82;;;;;;;16.94;100.00;95568.28;5089922;28;20213;-76
2022/08/25 07:29:58;;;;;;;14.43;9.88;;;;;;;16.90;100.00;95564.66;5088134;28;20123;-76
2022/08/25 07:32:23;;;;;;;19.70;9.20;;;;;;;16.96;100.00;95568.72;5089675;28;20069;-76
2022/08/25 07:37:37;;;;;;;13.57;8.07;;;;;;;17.68;100.00;95571.97;5086424;28;20094;-76
2022/08/25 07:40:03;;;;;;;14.32;8.15;;;;;;;17.39;100.00;95576.00;5087103;28;20775;-75
2022/08/25 07:42:28;;;;;;;12.23;8.43;;;;;;;17.36;100.00;95571.31;5087539;28;20115;-76
2022/08/25 07:44:54;;;;;;;15.38;7.95;;;;;;;17.68;100.00;95566.66;5089427;28;20093;-75
2022/08/25 07:47:20;;;;;;;16.15;8.40;;;;;;;17.90;100.00;95567.56;5090132;28;20508;-76
2022/08/25 07:49:45;;;;;;;13.60;8.15;;;;;;;17.79;100.00;95570.56;5090152;28;20044;-75
2022/08/25 07:52:11;;;;;;;12.90;8.00;;;;;;;17.91;100.00;95561.19;5088145;28;20090;-75
2022/08/25 07:54:36;;;;;;;11.20;7.63;;;;;;;18.25;100.00;95562.25;5092211;28;20036;-76
2022/08/25 07:57:03;;;;;;;12.13;7.80;;;;;;;18.09;100.00;95568.06;5090528;28;20040;-79
2022/08/25 07:59:28;;;;;;;14.75;7.93;;;;;;;18.04;100.00;95567.44;5090099;28;20401;-75
2022/08/25 08:01:54;;;;;;;12.82;7.35;;;;;;;18.03;100.00;95577.31;5090793;28;20036;-77
2022/08/25 08:04:19;;;;;;;15.30;8.00;;;;;;;18.06;100.00;95574.03;5094643;28;20547;-75
2022/08/25 08:06:45;;;;;;;12.73;8.43;;;;;;;18.08;100.00;95579.81;5092035;28;20040;-76
2022/08/25 08:09:11;;;;;;;11.50;8.10;;;;;;;18.24;100.00;95581.97;5081493;28;20047;-76
2022/08/25 08:11:39;;;;;;;11.90;7.95;;;;;;;18.20;100.00;95581.03;5091331;28;20478;-76
2022/08/25 08:14:07;;;;;;;11.90;7.85;;;;;;;18.37;100.00;95581.00;5089107;28;20044;-75
2022/08/25 08:16:33;;;;;;;14.77;7.30;;;;;;;18.64;100.00;95579.06;5089631;28;20477;-76
2022/08/25 08:18:59;;;;;;;11.48;7.25;;;;;;;18.42;100.00;95572.84;5088401;28;20044;-76
2022/08/25 08:21:31;;;;;;;13.00;7.15;;;;;;;18.60;100.00;95570.13;5094688;28;20028;-76
2022/08/25 08:23:57;;;;;;;11.02;7.13;;;;;;;18.48;100.00;95560.91;5079829;28;20058;-76
2022/08/25 08:26:24;;;;;;;13.30;7.88;;;;;;;18.63;100.00;95574.81;5093540;28;20036;-76
2022/08/25 08:28:50;;;;;;;14.18;8.57;;;;;;;18.66;100.00;95574.16;5087512;28;20044;-79
2022/08/25 08:31:20;;;;;;;12.65;7.47;;;;;;;18.57;100.00;95566.22;5090918;28;20055;-79
2022/08/25 08:33:47;;;;;;;14.93;8.15;;;;;;;19.15;100.00;95568.47;5090055;28;20044;-76
2022/08/25 08:36:13;;;;;;;13.50;8.32;;;;;;;18.92;100.00;95567.97;5085546;28;20040;-76
2022/08/25 08:38:40;;;;;;;19.83;8.38;;;;;;;18.85;100.00;95574.56;5086652;28;20036;-79
2022/08/25 08:45:00;;;;;;;11.95;8.27;;;;;;;19.18;100.00;95549.19;5088205;28;20044;-75
2022/08/25 08:47:51;;;;;;;10.68;7.38;;;;;;;19.41;100.00;95563.00;5090900;28;20495;-84
2022/08/25 08:50:50;;;;;;;13.32;7.40;;;;;;;20.05;100.00;95553.84;5094375;28;20063;-78
2022/08/25 08:53:21;;;;;;;16.42;7.72;;;;;;;19.65;100.00;95561.56;5085994;28;20043;-76
2022/08/25 08:55:50;;;;;;;10.02;6.90;;;;;;;19.61;100.00;95555.31;5088416;28;20040;-76
2022/08/25 08:58:22;;;;;;;12.73;7.90;;;;;;;19.71;100.00;95549.56;5083378;28;20044;-76
2022/08/25 09:00:51;;;;;;;14.70;7.55;;;;;;;19.71;100.00;95544.22;5084252;28;20043;-76
2022/08/25 09:03:34;;;;;;;13.55;7.38;;;;;;;19.84;100.00;95543.22;5099750;28;20111;-76
2022/08/25 09:06:05;;;;;;;12.02;6.88;;;;;;;19.96;100.00;95539.03;5090284;28;20035;-77
2022/08/25 09:08:31;;;;;;;11.98;7.40;;;;;;;19.96;100.00;95533.72;5084396;28;20600;-76
2022/08/25 09:11:21;;;;;;;13.77;7.40;;;;;;;20.07;100.00;95524.16;5089890;28;20042;-76
2022/08/25 09:14:09;;;;;;;13.32;7.20;;;;;;;20.24;100.00;95526.66;5089901;28;20564;-76
2022/08/25 09:16:55;;;;;;;9.57;6.85;;;;;;;20.33;100.00;95531.09;5077158;28;20043;-76
2022/08/25 09:19:46;;;;;;;11.85;6.78;;;;;;;20.62;100.00;95526.72;5087702;28;20032;-76
2022/08/25 09:22:21;;;;;;;10.20;6.75;;;;;;;20.62;100.00;95532.06;5093646;28;20047;-76
2022/08/25 09:25:05;;;;;;;9.70;6.47;;;;;;;20.75;100.00;95530.97;5094059;28;20504;-76
2022/08/25 09:27:51;;;;;;;10.50;6.40;;;;;;;20.78;100.00;95535.66;5088736;28;20043;-76
2022/08/25 09:30:20;;;;;;;9.65;6.55;;;;;;;20.96;100.00;95530.06;5080607;28;20047;-76
2022/08/25 09:32:48;;;;;;;9.38;6.50;;;;;;;21.41;100.00;95534.47;5089041;28;20404;-76
2022/08/25 09:35:24;;;;;;;8.50;5.63;;;;;;;21.22;100.00;95522.47;5091250;28;20040;-76
2022/08/25 09:37:59;;;;;;;11.85;6.20;;;;;;;21.25;100.00;95524.47;5087908;28;20048;-77
2022/08/25 09:40:30;;;;;;;10.32;6.43;;;;;;;21.70;100.00;95524.59;5086110;28;20119;-76
2022/08/25 09:42:59;;;;;;;9.60;5.88;;;;;;;21.57;100.00;95515.81;5086395;28;20028;-76
2022/08/25 09:45:33;;;;;;;8.55;5.85;;;;;;;21.65;100.00;95532.88;5089820;28;20047;-76
2022/08/25 09:47:59;;;;;;;8.65;5.70;;;;;;;21.70;100.00;95525.38;5091491;28;20063;-77
2022/08/25 09:50:31;;;;;;;12.02;6.25;;;;;;;21.65;100.00;95519.47;5083680;28;20072;-76
2022/08/25 09:53:12;;;;;;;7.88;5.93;;;;;;;21.71;100.00;95520.81;5088504;28;20044;-76
2022/08/25 09:55:42;;;;;;;10.13;6.03;;;;;;;21.86;100.00;95516.59;5082303;28;20043;-76
2022/08/25 09:58:22;;;;;;;14.57;6.70;;;;;;;22.07;99.47;95513.72;5082215;28;20048;-76
2022/08/25 10:01:15;;;;;;;8.13;5.82;;;;;;;22.53;96.81;95511.47;5093498;28;20039;-76
2022/08/25 10:03:54;;;;;;;10.48;6.30;;;;;;;22.57;97.07;95506.16;5087981;28;20529;-76
2022/08/25 10:06:20;;;;;;;11.02;6.30;;;;;;;22.58;93.73;95487.03;5078564;28;20043;-77
2022/08/25 10:08:47;;;;;;;8.98;6.18;;;;;;;22.84;94.65;95499.13;5088199;28;20127;-76
2022/08/25 10:11:29;;;;;;;9.85;5.65;;;;;;;23.15;94.59;95492.19;5088162;28;20119;-76
2022/08/25 10:14:27;;;;;;;9.40;5.93;;;;;;;23.70;90.32;95490.25;5087424;28;20036;-76
2022/08/25 10:17:23;;;;;;;9.20;6.18;;;;;;;23.78;86.12;95490.38;5071984;28;20140;-76
2022/08/25 10:20:10;;;;;;;12.38;6.03;;;;;;;24.37;84.76;95491.06;5084855;28;20051;-76
2022/08/25 10:22:41;;;;;;;7.55;5.28;;;;;;;24.68;81.00;95487.34;5087621;28;20379;-76
2022/08/25 10:25:10;;;;;;;9.30;5.07;;;;;;;24.72;79.72;95480.13;5083794;28;20040;-76
2022/08/25 10:27:36;;;;;;;8.82;5.70;;;;;;;25.07;80.16;95481.75;5088191;28;20508;-77
2022/08/25 10:30:34;;;;;;;10.77;6.40;;;;;;;24.75;79.38;95480.53;5088248;28;20044;-75
2022/08/25 10:33:09;;;;;;;11.25;5.95;;;;;;;25.16;75.72;95478.03;5070333;28;20063;-75
2022/08/25 10:35:55;;;;;;;13.23;5.88;;;;;;;25.66;76.37;95467.91;5083138;28;20115;-75
2022/08/25 10:38:44;;;;;;;11.27;5.75;;;;;;;24.86;77.48;95470.69;5086554;28;20036;-76
2022/08/25 10:41:21;;;;;;;9.43;5.60;;;;;;;25.84;74.21;95473.47;5088038;28;20040;-76
2022/08/25 10:45:41;;;;;;;11.20;5.78;;;;;;;25.59;74.60;95473.22;5081724;28;20097;-76
2022/08/25 10:47:25;;;;;;;7.95;5.50;;;;;;;26.08;75.93;95461.41;5087378;28;20101;-76
2022/08/25 10:50:23;;;;;;;7.65;5.43;;;;;;;26.36;71.57;95470.94;5060904;28;20126;-76
2022/08/25 10:52:55;;;;;;;13.68;5.68;;;;;;;25.85;70.98;95466.19;5089946;28;20913;-76
2022/08/25 10:56:03;;;;;;;9.50;5.90;;;;;;;26.72;69.69;95460.44;5081550;28;20047;-76
2022/08/25 10:59:03;;;;;;;12.48;5.63;;;;;;;27.26;67.10;95466.13;5083225;28;20056;-76
2022/08/25 11:01:41;;;;;;;12.05;5.07;;;;;;;27.68;63.99;95464.00;5074065;28;20048;-79
2022/08/25 11:04:12;;;;;;;9.00;4.82;;;;;;;27.83;58.31;95465.59;5095146;28;20498;-76
2022/08/25 11:06:46;;;;;;;8.88;5.22;;;;;;;28.29;57.77;95469.56;5102648;28;20037;-76
2022/08/25 11:09:17;;;;;;;7.25;5.18;;;;;;;28.60;56.30;95455.63;5080063;28;20044;-76
2022/08/25 11:11:53;;;;;;;8.73;5.55;;;;;;;28.60;56.73;95447.50;5090515;28;20040;-76
2022/08/25 11:14:40;;;;;;;9.57;5.93;;;;;;;29.12;55.10;95453.25;5091886;28;20043;-86
2022/08/25 11:17:17;;;;;;;10.52;6.57;;;;;;;28.97;56.31;95452.50;5081569;28;20456;-76
2022/08/25 11:19:50;;;;;;;10.65;6.57;;;;;;;27.89;58.51;95455.16;5091560;28;20050;-76
2022/08/25 11:22:41;;;;;;;11.10;6.50;;;;;;;28.73;55.45;95456.78;5085219;28;20044;-75
2022/08/25 11:25:31;;;;;;;9.02;6.00;;;;;;;29.27;53.09;95442.41;5079051;28;20118;-77
2022/08/25 11:28:10;;;;;;;10.82;6.45;;;;;;;30.14;51.92;95440.81;5093412;28;20104;-76
2022/08/25 11:30:37;;;;;;;14.80;7.15;;;;;;;30.05;52.60;95440.47;5089989;28;20426;-76
2022/08/25 11:33:03;;;;;;;10.43;6.85;;;;;;;29.97;54.18;95438.97;5095232;28;20129;-76
2022/08/25 11:35:39;;;;;;;13.68;7.28;;;;;;;29.82;52.42;95439.03;5106596;28;20039;-78
2022/08/25 11:38:42;;;;;;;13.50;7.18;;;;;;;31.07;50.13;95436.50;5084060;28;20036;-76
2022/08/25 11:41:21;;;;;;;10.68;7.22;;;;;;;31.21;49.44;95435.59;5086091;28;20123;-76
2022/08/25 11:44:05;;;;;;;10.65;7.20;;;;;;;31.71;47.50;95422.59;5083682;28;20044;-77
2022/08/25 11:46:34;;;;;;;;;;;;;;;31.25;49.76;95420.00;5090735;28;20036;-77
2022/08/25 11:49:19;;;;;;;13.02;7.25;;;;;;;30.14;50.20;95421.03;5091690;28;19924;-77